sensor_id;sensor_type;location;lat;lon;timestamp;P1;durP1;ratioP1;P2;durP2;ratioP2
52470;SDS011;38382;53.160;7.026;2022-09-03T00:00:48;4.15;;;1.30;;
52470;SDS011;38382;53.160;7.026;2022-09-03T00:03:32;3.70;;;1.50;;
52470;SDS011;38382;53.160;7.026;2022-09-03T00:06:08;3.35;;;1.30;;
52470;SDS011;38382;53.160;7.026;2022-09-03T00:09:13;3.83;;;1.40;;
52470;SDS011;38382;53.160;7.026;2022-09-03T00:17:04;3.58;;;1.40;;
52470;SDS011;38382;53.160;7.026;2022-09-03T00:19:36;2.65;;;1.38;;
52470;SDS011;38382;53.160;7.026;2022-09-03T00:22:33;4.90;;;1.30;;
52470;SDS011;38382;53.160;7.026;2022-09-03T00:25:03;5.15;;;1.40;;
52470;SDS011;38382;53.160;7.026;2022-09-03T00:27:36;2.30;;;1.30;;
52470;SDS011;38382;53.160;7.026;2022-09-03T00:30:09;3.75;;;1.38;;
52470;SDS011;38382;53.160;7.026;2022-09-03T00:32:50;3.20;;;1.27;;
52470;SDS011;38382;53.160;7.026;2022-09-03T00:35:39;2.00;;;1.20;;
52470;SDS011;38382;53.160;7.026;2022-09-03T00:38:30;2.22;;;1.38;;
52470;SDS011;38382;53.160;7.026;2022-09-03T00:43:45;2.55;;;1.40;;
52470;SDS011;38382;53.160;7.026;2022-09-03T00:49:10;2.47;;;1.40;;
52470;SDS011;38382;53.160;7.026;2022-09-03T01:00:54;4.35;;;1.60;;
52470;SDS011;38382;53.160;7.026;2022-09-03T01:03:31;2.25;;;1.27;;
52470;SDS011;38382;53.160;7.026;2022-09-03T01:06:21;2.33;;;1.30;;
52470;SDS011;38382;53.160;7.026;2022-09-03T01:14:10;4.15;;;1.50;;
52470;SDS011;38382;53.160;7.026;2022-09-03T01:17:53;2.95;;;1.58;;
52470;SDS011;38382;53.160;7.026;2022-09-03T01:33:50;3.28;;;1.60;;
52470;SDS011;38382;53.160;7.026;2022-09-03T01:36:35;3.83;;;1.17;;
52470;SDS011;38382;53.160;7.026;2022-09-03T01:42:08;2.55;;;1.50;;
52470;SDS011;38382;53.160;7.026;2022-09-03T01:50:00;2.83;;;1.30;;
52470;SDS011;38382;53.160;7.026;2022-09-03T01:52:56;2.58;;;1.38;;
52470;SDS011;38382;53.160;7.026;2022-09-03T01:55:57;3.13;;;1.50;;
52470;SDS011;38382;53.160;7.026;2022-09-03T01:58:49;3.30;;;1.50;;
52470;SDS011;38382;53.160;7.026;2022-09-03T02:01:36;2.38;;;1.40;;
52470;SDS011;38382;53.160;7.026;2022-09-03T02:04:17;2.92;;;1.50;;
52470;SDS011;38382;53.160;7.026;2022-09-03T02:06:48;4.25;;;1.48;;
52470;SDS011;38382;53.160;7.026;2022-09-03T02:09:15;3.97;;;1.60;;
52470;SDS011;38382;53.160;7.026;2022-09-03T02:11:42;3.63;;;1.63;;
52470;SDS011;38382;53.160;7.026;2022-09-03T02:14:23;2.63;;;1.80;;
52470;SDS011;38382;53.160;7.026;2022-09-03T02:16:50;4.03;;;1.65;;
52470;SDS011;38382;53.160;7.026;2022-09-03T02:19:16;4.25;;;1.63;;
52470;SDS011;38382;53.160;7.026;2022-09-03T02:21:50;2.92;;;1.48;;
52470;SDS011;38382;53.160;7.026;2022-09-03T02:24:18;5.13;;;1.60;;
52470;SDS011;38382;53.160;7.026;2022-09-03T02:26:44;2.58;;;1.60;;
52470;SDS011;38382;53.160;7.026;2022-09-03T02:29:11;4.70;;;1.60;;
52470;SDS011;38382;53.160;7.026;2022-09-03T02:31:38;3.03;;;1.52;;
52470;SDS011;38382;53.160;7.026;2022-09-03T02:34:04;2.67;;;1.55;;
52470;SDS011;38382;53.160;7.026;2022-09-03T02:36:31;4.38;;;1.70;;
52470;SDS011;38382;53.160;7.026;2022-09-03T02:39:03;4.68;;;1.70;;
52470;SDS011;38382;53.160;7.026;2022-09-03T02:41:29;3.00;;;1.55;;
52470;SDS011;38382;53.160;7.026;2022-09-03T02:46:43;3.17;;;1.60;;
52470;SDS011;38382;53.160;7.026;2022-09-03T02:49:12;3.47;;;1.60;;
52470;SDS011;38382;53.160;7.026;2022-09-03T02:51:39;2.78;;;1.60;;
52470;SDS011;38382;53.160;7.026;2022-09-03T02:54:07;2.45;;;1.50;;
52470;SDS011;38382;53.160;7.026;2022-09-03T02:56:33;3.05;;;1.70;;
52470;SDS011;38382;53.160;7.026;2022-09-03T02:58:59;2.97;;;1.75;;
52470;SDS011;38382;53.160;7.026;2022-09-03T03:01:26;3.05;;;1.83;;
52470;SDS011;38382;53.160;7.026;2022-09-03T03:03:52;2.70;;;1.80;;
52470;SDS011;38382;53.160;7.026;2022-09-03T03:06:18;3.05;;;1.70;;
52470;SDS011;38382;53.160;7.026;2022-09-03T03:08:45;3.15;;;1.70;;
52470;SDS011;38382;53.160;7.026;2022-09-03T03:13:52;3.00;;;1.60;;
52470;SDS011;38382;53.160;7.026;2022-09-03T03:16:18;3.17;;;1.90;;
52470;SDS011;38382;53.160;7.026;2022-09-03T03:18:44;3.28;;;1.90;;
52470;SDS011;38382;53.160;7.026;2022-09-03T03:21:14;3.78;;;1.58;;
52470;SDS011;38382;53.160;7.026;2022-09-03T03:23:41;3.38;;;1.70;;
52470;SDS011;38382;53.160;7.026;2022-09-03T03:26:09;2.95;;;1.60;;
52470;SDS011;38382;53.160;7.026;2022-09-03T03:28:35;3.10;;;1.70;;
52470;SDS011;38382;53.160;7.026;2022-09-03T03:31:08;2.80;;;1.80;;
52470;SDS011;38382;53.160;7.026;2022-09-03T03:33:38;3.35;;;1.73;;
52470;SDS011;38382;53.160;7.026;2022-09-03T03:36:09;2.70;;;1.63;;
52470;SDS011;38382;53.160;7.026;2022-09-03T03:38:36;3.65;;;1.92;;
52470;SDS011;38382;53.160;7.026;2022-09-03T03:43:30;2.88;;;1.83;;
52470;SDS011;38382;53.160;7.026;2022-09-03T03:45:56;3.88;;;2.00;;
52470;SDS011;38382;53.160;7.026;2022-09-03T03:48:23;5.68;;;2.03;;
52470;SDS011;38382;53.160;7.026;2022-09-03T03:50:49;3.20;;;1.80;;
52470;SDS011;38382;53.160;7.026;2022-09-03T03:53:15;5.18;;;2.03;;
52470;SDS011;38382;53.160;7.026;2022-09-03T03:55:41;2.63;;;1.65;;
52470;SDS011;38382;53.160;7.026;2022-09-03T03:58:06;2.83;;;1.88;;
52470;SDS011;38382;53.160;7.026;2022-09-03T04:00:32;2.42;;;1.60;;
52470;SDS011;38382;53.160;7.026;2022-09-03T04:03:16;4.55;;;2.17;;
52470;SDS011;38382;53.160;7.026;2022-09-03T04:06:14;4.63;;;1.98;;
52470;SDS011;38382;53.160;7.026;2022-09-03T04:08:43;4.07;;;2.10;;
52470;SDS011;38382;53.160;7.026;2022-09-03T04:13:39;3.22;;;1.90;;
52470;SDS011;38382;53.160;7.026;2022-09-03T04:16:18;2.72;;;1.80;;
52470;SDS011;38382;53.160;7.026;2022-09-03T04:18:46;3.70;;;1.80;;
52470;SDS011;38382;53.160;7.026;2022-09-03T04:21:14;4.90;;;1.98;;
52470;SDS011;38382;53.160;7.026;2022-09-03T04:23:45;3.28;;;2.00;;
52470;SDS011;38382;53.160;7.026;2022-09-03T04:26:16;7.60;;;2.08;;
52470;SDS011;38382;53.160;7.026;2022-09-03T04:28:48;2.95;;;1.90;;
52470;SDS011;38382;53.160;7.026;2022-09-03T04:31:23;4.63;;;1.80;;
52470;SDS011;38382;53.160;7.026;2022-09-03T04:33:49;3.03;;;1.77;;
52470;SDS011;38382;53.160;7.026;2022-09-03T04:36:16;3.42;;;1.83;;
52470;SDS011;38382;53.160;7.026;2022-09-03T04:38:44;3.25;;;1.83;;
52470;SDS011;38382;53.160;7.026;2022-09-03T04:43:46;3.60;;;2.20;;
52470;SDS011;38382;53.160;7.026;2022-09-03T04:46:13;2.58;;;1.92;;
52470;SDS011;38382;53.160;7.026;2022-09-03T04:48:40;3.45;;;1.92;;
52470;SDS011;38382;53.160;7.026;2022-09-03T04:51:07;3.53;;;1.98;;
52470;SDS011;38382;53.160;7.026;2022-09-03T04:53:35;3.72;;;2.10;;
52470;SDS011;38382;53.160;7.026;2022-09-03T04:56:10;3.03;;;1.95;;
52470;SDS011;38382;53.160;7.026;2022-09-03T04:58:44;3.28;;;2.03;;
52470;SDS011;38382;53.160;7.026;2022-09-03T05:01:15;3.20;;;1.90;;
52470;SDS011;38382;53.160;7.026;2022-09-03T05:03:45;4.20;;;2.28;;
52470;SDS011;38382;53.160;7.026;2022-09-03T05:06:12;2.72;;;1.90;;
52470;SDS011;38382;53.160;7.026;2022-09-03T05:08:38;3.60;;;2.00;;
52470;SDS011;38382;53.160;7.026;2022-09-03T05:13:30;3.90;;;2.13;;
52470;SDS011;38382;53.160;7.026;2022-09-03T05:16:01;2.60;;;1.88;;
52470;SDS011;38382;53.160;7.026;2022-09-03T05:18:28;3.30;;;2.05;;
52470;SDS011;38382;53.160;7.026;2022-09-03T05:20:58;5.80;;;2.38;;
52470;SDS011;38382;53.160;7.026;2022-09-03T05:23:24;5.28;;;2.25;;
52470;SDS011;38382;53.160;7.026;2022-09-03T05:26:31;4.00;;;2.28;;
52470;SDS011;38382;53.160;7.026;2022-09-03T05:29:01;4.88;;;2.20;;
52470;SDS011;38382;53.160;7.026;2022-09-03T05:31:32;3.40;;;2.33;;
52470;SDS011;38382;53.160;7.026;2022-09-03T05:34:00;6.47;;;2.30;;
52470;SDS011;38382;53.160;7.026;2022-09-03T05:36:28;2.88;;;1.73;;
52470;SDS011;38382;53.160;7.026;2022-09-03T05:38:56;3.28;;;2.20;;
52470;SDS011;38382;53.160;7.026;2022-09-03T05:41:23;6.28;;;2.17;;
52470;SDS011;38382;53.160;7.026;2022-09-03T05:47:45;2.72;;;1.90;;
52470;SDS011;38382;53.160;7.026;2022-09-03T05:50:11;4.05;;;2.10;;
52470;SDS011;38382;53.160;7.026;2022-09-03T05:52:36;4.40;;;2.00;;
52470;SDS011;38382;53.160;7.026;2022-09-03T05:55:02;2.75;;;2.10;;
52470;SDS011;38382;53.160;7.026;2022-09-03T05:57:28;2.80;;;2.00;;
52470;SDS011;38382;53.160;7.026;2022-09-03T05:59:54;5.85;;;2.13;;
52470;SDS011;38382;53.160;7.026;2022-09-03T06:02:20;5.18;;;2.10;;
52470;SDS011;38382;53.160;7.026;2022-09-03T06:04:46;4.03;;;2.00;;
52470;SDS011;38382;53.160;7.026;2022-09-03T06:07:13;3.70;;;1.92;;
52470;SDS011;38382;53.160;7.026;2022-09-03T06:09:39;3.97;;;2.45;;
52470;SDS011;38382;53.160;7.026;2022-09-03T06:12:05;6.45;;;2.28;;
52470;SDS011;38382;53.160;7.026;2022-09-03T06:14:32;4.78;;;2.20;;
52470;SDS011;38382;53.160;7.026;2022-09-03T06:16:57;2.50;;;1.80;;
52470;SDS011;38382;53.160;7.026;2022-09-03T06:19:23;3.20;;;1.98;;
52470;SDS011;38382;53.160;7.026;2022-09-03T06:21:49;3.85;;;2.00;;
52470;SDS011;38382;53.160;7.026;2022-09-03T06:24:16;3.17;;;2.08;;
52470;SDS011;38382;53.160;7.026;2022-09-03T06:26:44;3.45;;;2.15;;
52470;SDS011;38382;53.160;7.026;2022-09-03T06:29:10;3.97;;;2.20;;
52470;SDS011;38382;53.160;7.026;2022-09-03T06:31:36;5.53;;;2.38;;
52470;SDS011;38382;53.160;7.026;2022-09-03T06:34:03;4.07;;;2.05;;
52470;SDS011;38382;53.160;7.026;2022-09-03T06:36:30;4.13;;;2.13;;
52470;SDS011;38382;53.160;7.026;2022-09-03T06:38:56;4.43;;;2.08;;
52470;SDS011;38382;53.160;7.026;2022-09-03T06:41:41;2.75;;;1.90;;
52470;SDS011;38382;53.160;7.026;2022-09-03T06:44:07;3.95;;;2.00;;
52470;SDS011;38382;53.160;7.026;2022-09-03T06:46:39;3.88;;;2.20;;
52470;SDS011;38382;53.160;7.026;2022-09-03T06:49:08;4.55;;;1.95;;
52470;SDS011;38382;53.160;7.026;2022-09-03T06:51:35;4.22;;;2.30;;
52470;SDS011;38382;53.160;7.026;2022-09-03T06:54:06;3.70;;;2.30;;
52470;SDS011;38382;53.160;7.026;2022-09-03T06:56:40;3.67;;;2.13;;
52470;SDS011;38382;53.160;7.026;2022-09-03T06:59:35;3.80;;;2.10;;
52470;SDS011;38382;53.160;7.026;2022-09-03T07:02:14;6.40;;;2.83;;
52470;SDS011;38382;53.160;7.026;2022-09-03T07:04:48;4.38;;;2.13;;
52470;SDS011;38382;53.160;7.026;2022-09-03T07:07:19;3.17;;;2.08;;
52470;SDS011;38382;53.160;7.026;2022-09-03T07:09:48;5.43;;;2.30;;
52470;SDS011;38382;53.160;7.026;2022-09-03T07:12:19;4.35;;;2.00;;
52470;SDS011;38382;53.160;7.026;2022-09-03T07:15:01;4.38;;;1.98;;
52470;SDS011;38382;53.160;7.026;2022-09-03T07:17:45;3.42;;;1.83;;
52470;SDS011;38382;53.160;7.026;2022-09-03T07:20:31;3.35;;;2.00;;
52470;SDS011;38382;53.160;7.026;2022-09-03T07:22:57;6.00;;;2.10;;
52470;SDS011;38382;53.160;7.026;2022-09-03T07:25:23;3.45;;;1.90;;
52470;SDS011;38382;53.160;7.026;2022-09-03T07:27:55;5.18;;;2.20;;
52470;SDS011;38382;53.160;7.026;2022-09-03T07:30:22;3.72;;;1.92;;
52470;SDS011;38382;53.160;7.026;2022-09-03T07:32:50;3.15;;;1.80;;
52470;SDS011;38382;53.160;7.026;2022-09-03T07:35:18;4.28;;;2.00;;
52470;SDS011;38382;53.160;7.026;2022-09-03T07:37:44;3.90;;;1.90;;
52470;SDS011;38382;53.160;7.026;2022-09-03T07:40:10;4.38;;;1.85;;
52470;SDS011;38382;53.160;7.026;2022-09-03T07:42:36;3.13;;;1.77;;
52470;SDS011;38382;53.160;7.026;2022-09-03T07:45:07;4.65;;;1.88;;
52470;SDS011;38382;53.160;7.026;2022-09-03T07:50:41;4.22;;;1.80;;
52470;SDS011;38382;53.160;7.026;2022-09-03T07:53:07;3.72;;;1.80;;
52470;SDS011;38382;53.160;7.026;2022-09-03T07:55:32;4.32;;;1.70;;
52470;SDS011;38382;53.160;7.026;2022-09-03T07:57:58;5.47;;;1.75;;
52470;SDS011;38382;53.160;7.026;2022-09-03T08:00:27;4.28;;;1.60;;
52470;SDS011;38382;53.160;7.026;2022-09-03T08:03:08;2.90;;;1.80;;
52470;SDS011;38382;53.160;7.026;2022-09-03T08:05:34;3.65;;;1.77;;
52470;SDS011;38382;53.160;7.026;2022-09-03T08:08:02;7.10;;;2.88;;
52470;SDS011;38382;53.160;7.026;2022-09-03T08:10:41;5.15;;;1.80;;
52470;SDS011;38382;53.160;7.026;2022-09-03T08:17:34;4.70;;;1.75;;
52470;SDS011;38382;53.160;7.026;2022-09-03T08:20:01;3.55;;;1.67;;
52470;SDS011;38382;53.160;7.026;2022-09-03T08:22:31;4.97;;;1.70;;
52470;SDS011;38382;53.160;7.026;2022-09-03T08:24:58;3.42;;;1.73;;
52470;SDS011;38382;53.160;7.026;2022-09-03T08:27:24;2.92;;;1.70;;
52470;SDS011;38382;53.160;7.026;2022-09-03T08:29:50;4.63;;;1.70;;
52470;SDS011;38382;53.160;7.026;2022-09-03T08:32:34;4.68;;;1.70;;
52470;SDS011;38382;53.160;7.026;2022-09-03T08:36:02;3.25;;;1.70;;
52470;SDS011;38382;53.160;7.026;2022-09-03T08:42:50;4.10;;;1.55;;
52470;SDS011;38382;53.160;7.026;2022-09-03T08:45:33;4.70;;;1.70;;
52470;SDS011;38382;53.160;7.026;2022-09-03T08:48:12;2.88;;;1.60;;
52470;SDS011;38382;53.160;7.026;2022-09-03T08:50:47;3.35;;;1.70;;
52470;SDS011;38382;53.160;7.026;2022-09-03T08:53:25;4.72;;;1.60;;
52470;SDS011;38382;53.160;7.026;2022-09-03T08:56:11;5.10;;;1.70;;
52470;SDS011;38382;53.160;7.026;2022-09-03T08:58:45;3.65;;;1.50;;
52470;SDS011;38382;53.160;7.026;2022-09-03T09:01:13;4.13;;;1.40;;
52470;SDS011;38382;53.160;7.026;2022-09-03T09:07:34;4.43;;;1.60;;
52470;SDS011;38382;53.160;7.026;2022-09-03T09:15:13;4.65;;;1.60;;
52470;SDS011;38382;53.160;7.026;2022-09-03T09:18:16;1.88;;;1.13;;
52470;SDS011;38382;53.160;7.026;2022-09-03T09:21:09;4.30;;;1.58;;
52470;SDS011;38382;53.160;7.026;2022-09-03T09:23:43;5.65;;;1.58;;
52470;SDS011;38382;53.160;7.026;2022-09-03T09:26:16;4.60;;;1.40;;
52470;SDS011;38382;53.160;7.026;2022-09-03T09:28:54;3.05;;;1.52;;
52470;SDS011;38382;53.160;7.026;2022-09-03T09:31:23;4.47;;;1.58;;
52470;SDS011;38382;53.160;7.026;2022-09-03T09:33:50;6.45;;;1.70;;
52470;SDS011;38382;53.160;7.026;2022-09-03T09:36:16;3.92;;;1.40;;
52470;SDS011;38382;53.160;7.026;2022-09-03T09:38:43;3.92;;;1.50;;
52470;SDS011;38382;53.160;7.026;2022-09-03T09:43:42;3.92;;;1.50;;
52470;SDS011;38382;53.160;7.026;2022-09-03T09:46:11;4.55;;;1.50;;
52470;SDS011;38382;53.160;7.026;2022-09-03T09:48:45;3.38;;;1.40;;
52470;SDS011;38382;53.160;7.026;2022-09-03T09:53:45;5.03;;;1.52;;
52470;SDS011;38382;53.160;7.026;2022-09-03T09:56:32;4.97;;;1.60;;
52470;SDS011;38382;53.160;7.026;2022-09-03T09:59:01;4.45;;;1.40;;
52470;SDS011;38382;53.160;7.026;2022-09-03T10:01:28;3.03;;;1.40;;
52470;SDS011;38382;53.160;7.026;2022-09-03T10:03:58;5.88;;;1.60;;
52470;SDS011;38382;53.160;7.026;2022-09-03T10:06:33;3.80;;;1.30;;
52470;SDS011;38382;53.160;7.026;2022-09-03T10:09:28;6.53;;;1.60;;
52470;SDS011;38382;53.160;7.026;2022-09-03T10:17:15;2.90;;;1.38;;
52470;SDS011;38382;53.160;7.026;2022-09-03T10:20:11;5.63;;;1.40;;
52470;SDS011;38382;53.160;7.026;2022-09-03T10:23:13;4.93;;;1.48;;
52470;SDS011;38382;53.160;7.026;2022-09-03T10:28:23;5.22;;;1.42;;
52470;SDS011;38382;53.160;7.026;2022-09-03T10:34:12;3.22;;;1.25;;
52470;SDS011;38382;53.160;7.026;2022-09-03T10:51:03;5.70;;;1.30;;
52470;SDS011;38382;53.160;7.026;2022-09-03T11:02:00;3.70;;;1.30;;
52470;SDS011;38382;53.160;7.026;2022-09-03T11:07:20;4.75;;;1.33;;
52470;SDS011;38382;53.160;7.026;2022-09-03T11:12:47;3.63;;;1.30;;
52470;SDS011;38382;53.160;7.026;2022-09-03T11:15:31;3.03;;;1.50;;
52470;SDS011;38382;53.160;7.026;2022-09-03T11:18:59;3.95;;;1.10;;
52470;SDS011;38382;53.160;7.026;2022-09-03T11:21:35;7.75;;;1.50;;
52470;SDS011;38382;53.160;7.026;2022-09-03T11:24:08;6.05;;;1.50;;
52470;SDS011;38382;53.160;7.026;2022-09-03T11:26:41;4.47;;;1.25;;
52470;SDS011;38382;53.160;7.026;2022-09-03T11:32:19;3.05;;;1.17;;
52470;SDS011;38382;53.160;7.026;2022-09-03T11:34:59;3.65;;;1.20;;
52470;SDS011;38382;53.160;7.026;2022-09-03T11:37:25;3.75;;;1.20;;
52470;SDS011;38382;53.160;7.026;2022-09-03T11:40:03;4.80;;;1.38;;
52470;SDS011;38382;53.160;7.026;2022-09-03T11:42:39;2.78;;;1.08;;
52470;SDS011;38382;53.160;7.026;2022-09-03T11:47:46;3.58;;;1.30;;
52470;SDS011;38382;53.160;7.026;2022-09-03T11:53:55;3.08;;;1.42;;
52470;SDS011;38382;53.160;7.026;2022-09-03T11:56:23;2.35;;;1.20;;
52470;SDS011;38382;53.160;7.026;2022-09-03T11:59:03;4.28;;;1.65;;
52470;SDS011;38382;53.160;7.026;2022-09-03T12:04:25;6.15;;;1.20;;
52470;SDS011;38382;53.160;7.026;2022-09-03T12:07:06;3.45;;;1.15;;
52470;SDS011;38382;53.160;7.026;2022-09-03T12:15:20;2.40;;;1.23;;
52470;SDS011;38382;53.160;7.026;2022-09-03T12:19:03;4.78;;;1.15;;
52470;SDS011;38382;53.160;7.026;2022-09-03T12:22:00;3.10;;;1.27;;
52470;SDS011;38382;53.160;7.026;2022-09-03T12:24:28;4.47;;;1.20;;
52470;SDS011;38382;53.160;7.026;2022-09-03T12:27:02;5.30;;;1.30;;
52470;SDS011;38382;53.160;7.026;2022-09-03T12:29:29;2.40;;;1.27;;
52470;SDS011;38382;53.160;7.026;2022-09-03T12:32:03;3.25;;;1.33;;
52470;SDS011;38382;53.160;7.026;2022-09-03T12:34:31;6.47;;;1.40;;
52470;SDS011;38382;53.160;7.026;2022-09-03T12:36:57;4.57;;;1.25;;
52470;SDS011;38382;53.160;7.026;2022-09-03T12:39:26;2.53;;;1.20;;
52470;SDS011;38382;53.160;7.026;2022-09-03T12:42:01;3.67;;;1.35;;
52470;SDS011;38382;53.160;7.026;2022-09-03T12:45:47;2.95;;;1.02;;
52470;SDS011;38382;53.160;7.026;2022-09-03T12:55:59;2.50;;;1.08;;
52470;SDS011;38382;53.160;7.026;2022-09-03T12:58:35;3.90;;;1.25;;
52470;SDS011;38382;53.160;7.026;2022-09-03T13:01:15;2.67;;;1.13;;
52470;SDS011;38382;53.160;7.026;2022-09-03T13:43:22;3.95;;;1.20;;
52470;SDS011;38382;53.160;7.026;2022-09-03T13:57:56;6.90;;;1.30;;
52470;SDS011;38382;53.160;7.026;2022-09-03T14:52:21;4.90;;;1.30;;
52470;SDS011;38382;53.160;7.026;2022-09-03T15:00:16;3.63;;;1.40;;
52470;SDS011;38382;53.160;7.026;2022-09-03T15:02:59;6.60;;;1.40;;
52470;SDS011;38382;53.160;7.026;2022-09-03T15:08:40;5.03;;;1.42;;
52470;SDS011;38382;53.160;7.026;2022-09-03T15:20:22;177.73;;;163.02;;
52470;SDS011;38382;53.160;7.026;2022-09-03T15:28:22;307.92;;;280.60;;
52470;SDS011;38382;53.160;7.026;2022-09-03T15:33:41;355.17;;;319.83;;
52470;SDS011;38382;53.160;7.026;2022-09-03T15:38:48;16.65;;;15.05;;
52470;SDS011;38382;53.160;7.026;2022-09-03T16:20:00;73.97;;;52.22;;
52470;SDS011;38382;53.160;7.026;2022-09-03T16:22:42;20.02;;;14.43;;
52470;SDS011;38382;53.160;7.026;2022-09-03T16:25:32;168.05;;;152.05;;
52470;SDS011;38382;53.160;7.026;2022-09-03T16:39:30;6.80;;;5.90;;
52470;SDS011;38382;53.160;7.026;2022-09-03T16:54:39;5.22;;;1.40;;
52470;SDS011;38382;53.160;7.026;2022-09-03T17:13:10;3.13;;;1.50;;
52470;SDS011;38382;53.160;7.026;2022-09-03T17:16:17;6.45;;;1.77;;
52470;SDS011;38382;53.160;7.026;2022-09-03T17:29:46;7.38;;;1.75;;
52470;SDS011;38382;53.160;7.026;2022-09-03T17:35:14;12.63;;;2.28;;
52470;SDS011;38382;53.160;7.026;2022-09-03T17:49:00;7.10;;;1.83;;
52470;SDS011;38382;53.160;7.026;2022-09-03T17:51:35;7.50;;;1.63;;
52470;SDS011;38382;53.160;7.026;2022-09-03T17:54:11;4.57;;;1.50;;
52470;SDS011;38382;53.160;7.026;2022-09-03T17:59:16;4.13;;;1.50;;
52470;SDS011;38382;53.160;7.026;2022-09-03T18:02:08;4.50;;;1.40;;
52470;SDS011;38382;53.160;7.026;2022-09-03T18:07:48;4.72;;;1.73;;
52470;SDS011;38382;53.160;7.026;2022-09-03T18:10:39;4.30;;;1.40;;
52470;SDS011;38382;53.160;7.026;2022-09-03T18:18:52;9.18;;;1.52;;
52470;SDS011;38382;53.160;7.026;2022-09-03T18:21:24;5.40;;;1.40;;
52470;SDS011;38382;53.160;7.026;2022-09-03T18:30:24;6.47;;;1.65;;
52470;SDS011;38382;53.160;7.026;2022-09-03T18:33:08;2.47;;;1.30;;
52470;SDS011;38382;53.160;7.026;2022-09-03T18:35:53;4.55;;;1.70;;
52470;SDS011;38382;53.160;7.026;2022-09-03T18:38:38;3.85;;;1.55;;
52470;SDS011;38382;53.160;7.026;2022-09-03T18:44:04;3.53;;;1.60;;
52470;SDS011;38382;53.160;7.026;2022-09-03T18:50:55;2.97;;;1.50;;
52470;SDS011;38382;53.160;7.026;2022-09-03T18:54:43;5.32;;;1.50;;
52470;SDS011;38382;53.160;7.026;2022-09-03T19:01:26;4.57;;;1.90;;
52470;SDS011;38382;53.160;7.026;2022-09-03T19:25:45;3.40;;;1.70;;
52470;SDS011;38382;53.160;7.026;2022-09-03T19:29:11;4.25;;;1.50;;
52470;SDS011;38382;53.160;7.026;2022-09-03T19:55:44;3.75;;;1.90;;
52470;SDS011;38382;53.160;7.026;2022-09-03T20:02:43;4.43;;;1.63;;
52470;SDS011;38382;53.160;7.026;2022-09-03T20:06:00;4.35;;;1.70;;
52470;SDS011;38382;53.160;7.026;2022-09-03T20:09:14;3.92;;;1.75;;
52470;SDS011;38382;53.160;7.026;2022-09-03T20:12:02;6.47;;;1.88;;
52470;SDS011;38382;53.160;7.026;2022-09-03T20:14:34;3.78;;;1.88;;
52470;SDS011;38382;53.160;7.026;2022-09-03T20:26:11;3.97;;;1.70;;
52470;SDS011;38382;53.160;7.026;2022-09-03T20:52:11;3.03;;;1.70;;
52470;SDS011;38382;53.160;7.026;2022-09-03T21:00:27;6.28;;;1.90;;
52470;SDS011;38382;53.160;7.026;2022-09-03T21:03:21;3.45;;;1.77;;
52470;SDS011;38382;53.160;7.026;2022-09-03T21:20:21;4.10;;;1.80;;
52470;SDS011;38382;53.160;7.026;2022-09-03T21:30:03;5.40;;;1.85;;
52470;SDS011;38382;53.160;7.026;2022-09-03T21:32:59;6.55;;;2.20;;
52470;SDS011;38382;53.160;7.026;2022-09-03T21:35:33;3.23;;;2.03;;
52470;SDS011;38382;53.160;7.026;2022-09-03T21:38:30;4.45;;;1.92;;
52470;SDS011;38382;53.160;7.026;2022-09-03T21:46:31;3.33;;;2.00;;
52470;SDS011;38382;53.160;7.026;2022-09-03T21:49:22;3.17;;;1.80;;
52470;SDS011;38382;53.160;7.026;2022-09-03T21:52:05;2.95;;;1.85;;
52470;SDS011;38382;53.160;7.026;2022-09-03T21:54:53;4.10;;;2.13;;
52470;SDS011;38382;53.160;7.026;2022-09-03T22:02:42;4.35;;;1.90;;
52470;SDS011;38382;53.160;7.026;2022-09-03T22:05:14;6.85;;;2.13;;
52470;SDS011;38382;53.160;7.026;2022-09-03T22:10:56;3.08;;;1.92;;
52470;SDS011;38382;53.160;7.026;2022-09-03T22:13:31;3.45;;;1.80;;
52470;SDS011;38382;53.160;7.026;2022-09-03T22:16:08;4.25;;;2.20;;
52470;SDS011;38382;53.160;7.026;2022-09-03T22:18:38;4.55;;;2.10;;
52470;SDS011;38382;53.160;7.026;2022-09-03T22:21:07;3.92;;;1.90;;
52470;SDS011;38382;53.160;7.026;2022-09-03T22:26:55;4.32;;;2.00;;
52470;SDS011;38382;53.160;7.026;2022-09-03T22:34:53;4.97;;;2.42;;
52470;SDS011;38382;53.160;7.026;2022-09-03T22:40:24;4.45;;;2.30;;
52470;SDS011;38382;53.160;7.026;2022-09-03T22:51:26;4.65;;;2.63;;
52470;SDS011;38382;53.160;7.026;2022-09-03T22:54:59;4.15;;;2.20;;
52470;SDS011;38382;53.160;7.026;2022-09-03T22:57:01;4.90;;;2.47;;
52470;SDS011;38382;53.160;7.026;2022-09-03T22:59:31;4.43;;;2.35;;
52470;SDS011;38382;53.160;7.026;2022-09-03T23:07:38;4.93;;;2.20;;
52470;SDS011;38382;53.160;7.026;2022-09-03T23:10:20;3.10;;;2.10;;
52470;SDS011;38382;53.160;7.026;2022-09-03T23:13:09;4.38;;;2.10;;
52470;SDS011;38382;53.160;7.026;2022-09-03T23:15:40;3.47;;;2.00;;
52470;SDS011;38382;53.160;7.026;2022-09-03T23:18:14;3.15;;;2.00;;
52470;SDS011;38382;53.160;7.026;2022-09-03T23:20:46;3.97;;;2.05;;
52470;SDS011;38382;53.160;7.026;2022-09-03T23:23:41;3.60;;;2.00;;
52470;SDS011;38382;53.160;7.026;2022-09-03T23:28:41;5.38;;;2.03;;
52470;SDS011;38382;53.160;7.026;2022-09-03T23:33:47;4.65;;;2.25;;
52470;SDS011;38382;53.160;7.026;2022-09-03T23:36:31;3.97;;;2.15;;
52470;SDS011;38382;53.160;7.026;2022-09-03T23:41:35;3.63;;;2.00;;
52470;SDS011;38382;53.160;7.026;2022-09-03T23:44:36;6.03;;;2.25;;
52470;SDS011;38382;53.160;7.026;2022-09-03T23:47:12;4.95;;;2.20;;
